createdAt,value
2022-11-22T00:00:56.096Z,82.63
2022-11-22T00:03:23.979Z,78.43
2022-11-22T00:05:52.201Z,78.23
2022-11-22T00:08:20.154Z,79.27
2022-11-22T00:10:49.857Z,83.97
2022-11-22T00:13:19.719Z,85.33
2022-11-22T00:15:59.554Z,85.10
2022-11-22T00:18:27.532Z,84.43
2022-11-22T00:20:55.420Z,83.27
2022-11-22T00:23:23.530Z,82.33
2022-11-22T00:25:51.603Z,86.47
2022-11-22T00:28:20.933Z,82.73
2022-11-22T00:30:48.880Z,85.50
2022-11-22T00:33:16.877Z,85.83
2022-11-22T00:35:46.644Z,80.20
2022-11-22T00:38:14.607Z,83.50
2022-11-22T00:40:42.631Z,82.40
2022-11-22T00:43:10.604Z,82.17
2022-11-22T00:45:41.953Z,80.70
2022-11-22T00:48:09.868Z,84.10
2022-11-22T00:50:37.831Z,89.23
2022-11-22T00:53:05.853Z,87.30
2022-11-22T00:55:33.753Z,89.17
2022-11-22T00:58:01.882Z,91.60
2022-11-22T01:00:29.870Z,88.77
2022-11-22T01:02:59.210Z,92.07
2022-11-22T01:05:27.134Z,92.60
2022-11-22T01:07:55.269Z,89.77
2022-11-22T01:10:23.903Z,96.30
2022-11-22T01:12:51.818Z,95.53
2022-11-22T01:15:19.882Z,95.07
2022-11-22T01:17:47.785Z,98.23
2022-11-22T01:20:17.096Z,99.73
2022-11-22T01:22:45.122Z,99.30
2022-11-22T01:25:13.343Z,103.77
2022-11-22T01:27:41.344Z,107.30
2022-11-22T01:30:10.141Z,108.77
2022-11-22T01:32:38.023Z,108.17
2022-11-22T01:35:06.648Z,101.80
2022-11-22T01:37:36.253Z,98.27
2022-11-22T01:40:04.550Z,99.97
2022-11-22T01:42:44.574Z,94.47
2022-11-22T01:45:50.027Z,96.17
2022-11-22T01:48:39.085Z,99.43
2022-11-22T01:51:15.571Z,101.70
2022-11-22T01:53:45.363Z,102.73
2022-11-22T01:56:18.027Z,104.67
2022-11-22T01:58:50.145Z,113.57
2022-11-22T02:01:18.252Z,111.53
2022-11-22T02:03:50.765Z,110.23
2022-11-22T02:06:19.886Z,107.27
2022-11-22T02:08:56.204Z,102.60
2022-11-22T02:11:30.990Z,106.30
2022-11-22T02:14:01.969Z,102.53
2022-11-22T02:16:30.089Z,103.77
2022-11-22T02:18:58.030Z,105.10
2022-11-22T02:21:25.986Z,100.63
2022-11-22T02:23:58.689Z,103.03
2022-11-22T02:26:30.329Z,109.20
2022-11-22T02:29:05.269Z,102.43
2022-11-22T02:31:39.367Z,113.67
2022-11-22T02:34:07.379Z,107.07
2022-11-22T02:36:39.704Z,101.10
2022-11-22T02:39:10.165Z,108.87
2022-11-22T02:41:39.966Z,102.23
2022-11-22T02:44:10.600Z,95.20
2022-11-22T02:46:48.040Z,86.83
2022-11-22T02:49:18.715Z,88.63
2022-11-22T02:51:46.977Z,99.27
2022-11-22T02:54:15.179Z,105.67
2022-11-22T02:56:44.769Z,95.83
2022-11-22T02:59:12.731Z,108.77
2022-11-22T03:01:40.943Z,97.87
2022-11-22T03:04:08.933Z,96.33
2022-11-22T03:06:37.065Z,88.60
2022-11-22T03:09:04.954Z,88.50
2022-11-22T03:11:32.891Z,91.53
2022-11-22T03:14:02.154Z,87.97
2022-11-22T03:16:30.902Z,204.70
2022-11-22T03:18:58.796Z,111.77
2022-11-22T03:21:26.820Z,104.40
2022-11-22T03:23:55.840Z,143.33
2022-11-22T03:26:23.793Z,177.30
2022-11-22T03:28:51.748Z,104.40
2022-11-22T03:31:21.129Z,96.93
2022-11-22T03:33:49.204Z,95.60
2022-11-22T03:36:17.082Z,93.97
2022-11-22T03:38:45.337Z,93.50
2022-11-22T03:41:15.385Z,104.33
2022-11-22T03:43:43.338Z,137.03
2022-11-22T03:46:15.770Z,93.17
2022-11-22T03:48:45.061Z,194.63
2022-11-22T03:51:13.221Z,146.63
2022-11-22T03:53:41.099Z,154.70
2022-11-22T03:56:09.144Z,116.07
2022-11-22T03:58:37.012Z,222.23
2022-11-22T04:01:05.098Z,196.87
2022-11-22T04:03:33.199Z,139.17
2022-11-22T04:06:02.801Z,108.47
2022-11-22T04:08:30.780Z,133.57
2022-11-22T04:10:58.744Z,87.03
2022-11-22T04:13:47.320Z,247.67
2022-11-22T04:16:14.454Z,194.30
2022-11-22T04:18:42.558Z,102.80
2022-11-22T04:21:29.516Z,86.73
2022-11-22T04:24:11.368Z,152.07
2022-11-22T04:26:39.428Z,126.70
2022-11-22T04:29:10.143Z,189.43
2022-11-22T04:31:55.866Z,112.17
2022-11-22T04:34:24.417Z,102.23
2022-11-22T04:36:53.750Z,87.33
2022-11-22T04:39:21.798Z,148.37
2022-11-22T04:42:10.399Z,93.90
2022-11-22T04:44:42.999Z,155.53
2022-11-22T04:47:12.110Z,185.43
2022-11-22T04:49:40.130Z,90.07
2022-11-22T04:52:28.241Z,98.93
2022-11-22T04:54:56.205Z,108.47
2022-11-22T04:57:24.129Z,86.73
2022-11-22T04:59:52.222Z,103.17
2022-11-22T05:02:20.213Z,87.93
2022-11-22T05:04:50.825Z,79.90
2022-11-22T05:07:22.373Z,75.77
2022-11-22T05:09:50.281Z,88.57
2022-11-22T05:12:18.265Z,72.57
2022-11-22T05:14:46.158Z,190.60
2022-11-22T05:17:14.105Z,104.90
2022-11-22T05:19:47.789Z,111.97
2022-11-22T05:22:17.246Z,122.13
2022-11-22T05:24:45.624Z,84.97
2022-11-22T05:27:13.537Z,146.17
2022-11-22T05:29:41.478Z,96.27
2022-11-22T05:32:09.471Z,136.93
2022-11-22T05:34:37.437Z,133.03
2022-11-22T05:37:05.457Z,77.67
2022-11-22T05:39:33.407Z,105.67
2022-11-22T05:42:05.901Z,81.37
2022-11-22T05:44:34.165Z,90.97
2022-11-22T05:47:02.117Z,77.87
2022-11-22T05:49:30.328Z,73.27
2022-11-22T05:51:58.476Z,77.20
2022-11-22T05:54:26.469Z,73.20
2022-11-22T05:56:54.389Z,71.83
2022-11-22T05:59:23.912Z,82.37
2022-11-22T06:01:51.807Z,71.63
2022-11-22T06:04:19.951Z,75.50
2022-11-22T06:06:47.984Z,71.17
2022-11-22T06:09:16.116Z,70.00
2022-11-22T06:11:44.078Z,72.80
2022-11-22T06:14:12.042Z,73.00
2022-11-22T06:16:41.327Z,70.00
2022-11-22T06:19:09.413Z,75.00
2022-11-22T06:21:37.392Z,75.57
2022-11-22T06:24:05.713Z,72.97
2022-11-22T06:26:39.095Z,71.90
2022-11-22T06:29:07.612Z,71.50
2022-11-22T06:31:35.621Z,72.47
2022-11-22T06:34:06.002Z,73.33
2022-11-22T06:36:35.910Z,72.53
2022-11-22T06:39:04.094Z,73.53
2022-11-22T06:41:34.767Z,74.77
2022-11-22T06:44:06.638Z,72.53
2022-11-22T06:46:35.348Z,70.97
2022-11-22T06:49:05.082Z,75.50
2022-11-22T06:51:33.779Z,74.90
2022-11-22T06:54:01.814Z,74.20
2022-11-22T06:56:31.826Z,74.50
2022-11-22T06:59:03.187Z,74.53
2022-11-22T07:01:31.720Z,74.47
2022-11-22T07:04:00.609Z,76.87
2022-11-22T07:06:31.640Z,73.40
2022-11-22T07:09:00.512Z,74.30
2022-11-22T07:11:32.750Z,74.27
2022-11-22T07:14:07.498Z,75.17
2022-11-22T07:16:37.040Z,73.97
2022-11-22T07:19:05.559Z,75.43
2022-11-22T07:21:37.432Z,79.77
2022-11-22T07:24:07.671Z,73.87
2022-11-22T07:26:35.848Z,74.17
2022-11-22T07:29:04.152Z,74.33
2022-11-22T07:31:32.164Z,75.17
2022-11-22T07:34:00.163Z,76.00
2022-11-22T07:36:29.647Z,72.70
2022-11-22T07:38:59.395Z,74.40
2022-11-22T07:41:27.414Z,74.80
2022-11-22T07:43:55.805Z,75.27
2022-11-22T07:46:26.460Z,74.90
2022-11-22T07:48:54.522Z,77.10
2022-11-22T07:51:22.771Z,74.47
2022-11-22T07:53:50.783Z,70.83
2022-11-22T07:56:20.419Z,71.93
2022-11-22T07:58:48.544Z,71.40
2022-11-22T08:01:18.363Z,72.50
2022-11-22T08:03:47.218Z,73.63
2022-11-22T08:06:16.625Z,71.33
2022-11-22T08:08:45.698Z,70.67
2022-11-22T08:11:14.372Z,67.40
2022-11-22T08:13:44.684Z,68.33
2022-11-22T08:16:15.044Z,72.00
2022-11-22T08:18:47.117Z,69.57
2022-11-22T08:21:15.931Z,69.80
2022-11-22T08:23:44.504Z,67.27
2022-11-22T08:26:14.516Z,67.93
2022-11-22T08:28:44.751Z,68.77
2022-11-22T08:31:14.938Z,67.47
2022-11-22T08:33:43.185Z,68.13
2022-11-22T08:36:11.346Z,68.27
2022-11-22T08:38:39.700Z,67.43
2022-11-22T08:41:08.419Z,66.93
2022-11-22T08:43:36.647Z,66.33
2022-11-22T08:46:06.577Z,65.43
2022-11-22T08:48:36.814Z,66.40
2022-11-22T08:51:07.343Z,65.60
2022-11-22T08:53:37.343Z,64.33
2022-11-22T08:56:07.087Z,61.83
2022-11-22T08:58:35.593Z,62.87
2022-11-22T09:01:08.412Z,62.87
2022-11-22T09:03:37.126Z,60.53
2022-11-22T09:09:08.738Z,59.87
2022-11-22T09:11:42.017Z,59.77
2022-11-22T09:14:09.957Z,58.63
2022-11-22T09:16:39.245Z,59.53
2022-11-22T09:19:07.259Z,57.47
2022-11-22T09:21:35.266Z,54.80
2022-11-22T09:24:03.342Z,56.27
2022-11-22T09:26:31.423Z,55.57
2022-11-22T09:28:59.296Z,55.30
2022-11-22T09:31:27.229Z,57.67
2022-11-22T09:33:56.503Z,64.20
2022-11-22T09:36:26.952Z,62.67
2022-11-22T09:38:56.208Z,63.27
2022-11-22T09:42:05.334Z,63.27
2022-11-22T09:44:43.399Z,64.53
2022-11-22T09:47:22.957Z,62.37
2022-11-22T09:50:04.587Z,62.80
2022-11-22T09:52:38.317Z,63.77
2022-11-22T09:55:12.332Z,65.93
2022-11-22T09:57:45.607Z,64.03
2022-11-22T10:00:20.924Z,63.20
2022-11-22T10:03:00.343Z,61.90
2022-11-22T10:05:35.746Z,61.43
2022-11-22T10:08:27.278Z,62.50
2022-11-22T10:10:58.643Z,61.50
2022-11-22T10:13:32.571Z,61.60
2022-11-22T10:16:09.927Z,59.43
2022-11-22T10:18:43.333Z,59.47
2022-11-22T10:21:14.393Z,58.60
2022-11-22T10:23:44.306Z,59.63
2022-11-22T10:26:23.290Z,58.73
2022-11-22T10:29:05.326Z,56.43
2022-11-22T10:31:42.279Z,58.50
2022-11-22T10:34:20.005Z,56.23
2022-11-22T10:36:57.064Z,57.30
2022-11-22T10:39:42.439Z,57.37
2022-11-22T10:42:24.361Z,56.60
2022-11-22T10:45:01.947Z,57.13
2022-11-22T10:47:54.195Z,56.03
2022-11-22T10:50:27.681Z,55.47
2022-11-22T10:53:06.711Z,55.83
2022-11-22T10:55:53.059Z,53.20
2022-11-22T10:58:33.936Z,53.07
2022-11-22T11:01:08.425Z,53.57
2022-11-22T11:03:40.120Z,51.70
2022-11-22T11:06:24.526Z,52.47
2022-11-22T11:11:56.189Z,51.00
2022-11-22T11:14:33.890Z,50.90
2022-11-22T11:17:03.963Z,51.53
2022-11-22T11:19:38.274Z,49.10
2022-11-22T11:22:26.122Z,48.67
2022-11-22T11:25:31.595Z,43.27
2022-11-22T11:28:03.900Z,40.40
2022-11-22T11:30:40.080Z,39.80
2022-11-22T11:33:19.533Z,40.27
2022-11-22T11:35:48.410Z,39.37
2022-11-22T11:38:36.408Z,38.43
2022-11-22T11:41:25.212Z,37.17
2022-11-22T11:43:54.148Z,37.67
2022-11-22T11:46:23.760Z,38.47
2022-11-22T11:48:53.330Z,37.17
2022-11-22T11:51:38.653Z,35.60
2022-11-22T11:54:12.134Z,30.20
2022-11-22T11:56:52.306Z,25.87
2022-11-22T11:59:22.334Z,18.53
2022-11-22T12:01:58.482Z,17.10
2022-11-22T12:04:29.933Z,15.30
2022-11-22T12:07:04.244Z,14.87
2022-11-22T12:09:37.537Z,13.93
2022-11-22T12:12:31.157Z,13.57
2022-11-22T12:15:11.927Z,14.68
2022-11-22T12:17:50.010Z,14.52
2022-11-22T12:20:23.155Z,14.00
2022-11-22T12:23:08.039Z,13.93
2022-11-22T12:25:45.168Z,15.50
2022-11-22T12:28:19.990Z,14.30
2022-11-22T12:30:54.262Z,15.00
2022-11-22T12:33:28.697Z,14.75
2022-11-22T12:35:58.548Z,14.43
2022-11-22T12:38:33.025Z,14.50
2022-11-22T12:41:04.543Z,14.07
2022-11-22T12:43:39.129Z,13.90
2022-11-22T12:46:13.059Z,14.52
2022-11-22T12:48:48.911Z,14.63
2022-11-22T12:51:24.904Z,13.90
2022-11-22T12:53:54.225Z,14.73
2022-11-22T12:56:33.382Z,18.92
2022-11-22T12:59:14.759Z,21.40
2022-11-22T13:01:48.947Z,22.20
2022-11-22T13:04:23.736Z,22.58
2022-11-22T13:06:58.776Z,23.67
2022-11-22T13:09:31.575Z,24.73
2022-11-22T13:12:04.164Z,27.57
2022-11-22T13:14:36.976Z,26.00
2022-11-22T13:17:08.316Z,25.27
2022-11-22T13:19:47.083Z,26.07
2022-11-22T13:22:26.870Z,26.40
2022-11-22T13:25:10.450Z,26.20
2022-11-22T13:27:44.373Z,25.40
2022-11-22T13:30:20.727Z,24.67
2022-11-22T13:32:52.045Z,24.10
2022-11-22T13:35:27.724Z,23.70
2022-11-22T13:37:58.032Z,23.67
2022-11-22T13:40:32.108Z,23.47
2022-11-22T13:43:50.410Z,24.10
2022-11-22T13:46:54.464Z,24.43
2022-11-22T13:49:41.093Z,24.23
2022-11-22T13:52:51.345Z,23.80
2022-11-22T13:55:36.013Z,24.33
2022-11-22T13:58:55.644Z,25.43
2022-11-22T14:01:59.135Z,29.03
2022-11-22T14:04:45.219Z,30.33
2022-11-22T14:07:35.843Z,31.40
2022-11-22T14:10:05.187Z,33.73
2022-11-22T14:13:18.418Z,33.73
2022-11-22T14:15:58.271Z,36.27
2022-11-22T14:18:52.805Z,36.73
2022-11-22T14:21:41.564Z,35.27
2022-11-22T14:24:15.426Z,36.90
2022-11-22T14:26:54.503Z,36.53
2022-11-22T14:29:53.785Z,37.77
2022-11-22T14:32:23.801Z,37.33
2022-11-22T14:35:26.370Z,37.00
2022-11-22T14:38:03.863Z,36.87
2022-11-22T14:40:37.531Z,37.57
2022-11-22T14:43:35.528Z,39.43
2022-11-22T14:46:37.355Z,39.27
2022-11-22T14:49:07.735Z,39.70
2022-11-22T14:51:37.837Z,39.93
2022-11-22T14:54:20.538Z,40.07
2022-11-22T14:56:49.440Z,40.50
2022-11-22T14:59:37.023Z,41.10
2022-11-22T15:02:31.331Z,42.70
2022-11-22T15:09:13.282Z,41.03
2022-11-22T15:09:21.983Z,42.80
2022-11-22T15:11:29.591Z,42.83
2022-11-22T15:14:46.465Z,43.33
2022-11-22T15:57:38.117Z,44.63
2022-11-22T16:00:12.197Z,43.70
2022-11-22T16:02:48.693Z,43.13
2022-11-22T16:06:08.153Z,42.20
2022-11-22T16:08:15.570Z,42.30
2022-11-22T16:10:45.668Z,41.13
2022-11-22T16:13:29.144Z,40.73
2022-11-22T16:16:08.884Z,41.53
2022-11-22T16:18:37.071Z,40.70
2022-11-22T16:21:07.262Z,40.00
2022-11-22T16:23:37.434Z,40.13
2022-11-22T16:26:24.886Z,41.57
2022-11-22T16:28:55.369Z,42.50
2022-11-22T16:31:24.976Z,42.50
2022-11-22T16:33:54.735Z,41.37
2022-11-22T16:36:24.776Z,42.27
2022-11-22T16:38:52.707Z,40.73
2022-11-22T16:41:23.706Z,40.70
2022-11-22T16:43:57.774Z,42.50
2022-11-22T16:46:25.765Z,41.87
2022-11-22T16:48:54.402Z,43.43
2022-11-22T16:51:24.715Z,42.80
2022-11-22T16:53:54.273Z,41.23
2022-11-22T16:56:23.429Z,44.30
2022-11-22T16:58:52.695Z,40.20
2022-11-22T17:01:24.178Z,39.90
2022-11-22T17:03:54.371Z,40.13
2022-11-22T17:06:24.437Z,38.73
2022-11-22T17:08:54.523Z,38.30
2022-11-22T17:11:24.889Z,37.07
2022-11-22T17:13:53.146Z,36.53
2022-11-22T17:16:22.664Z,35.73
2022-11-22T17:18:50.693Z,35.40
2022-11-22T17:21:25.763Z,34.70
2022-11-22T17:23:55.909Z,35.10
2022-11-22T17:26:24.607Z,34.40
2022-11-22T17:28:52.667Z,34.60
2022-11-22T17:31:23.481Z,32.97
2022-11-22T17:33:52.458Z,33.97
2022-11-22T17:36:26.395Z,33.57
2022-11-22T17:38:54.361Z,33.03
2022-11-22T17:41:22.633Z,34.00
2022-11-22T17:43:51.747Z,32.30
2022-11-22T17:46:20.058Z,33.97
2022-11-22T17:48:54.095Z,34.53
2022-11-22T17:51:22.695Z,35.97
2022-11-22T17:53:50.741Z,36.10
2022-11-22T17:56:18.684Z,36.03
2022-11-22T17:58:46.889Z,35.43
2022-11-22T18:01:16.483Z,36.93
2022-11-22T18:03:45.477Z,36.33
2022-11-22T18:06:16.002Z,37.13
2022-11-22T18:08:47.197Z,37.63
2022-11-22T18:11:16.174Z,38.20
2022-11-22T18:13:44.640Z,36.43
2022-11-22T18:16:15.713Z,38.10
2022-11-22T18:18:59.530Z,39.90
2022-11-22T18:21:30.282Z,43.20
2022-11-22T18:23:58.836Z,43.30
2022-11-22T18:26:42.986Z,42.43
2022-11-22T18:32:01.438Z,42.57
2022-11-22T18:34:29.599Z,42.33
2022-11-22T18:37:03.832Z,44.03
2022-11-22T18:39:33.941Z,44.73
2022-11-22T18:42:02.494Z,46.00
2022-11-22T18:44:30.524Z,45.10
2022-11-22T18:46:58.456Z,46.63
2022-11-22T18:49:26.419Z,46.37
2022-11-22T18:51:54.477Z,47.37
2022-11-22T18:54:23.840Z,47.07
2022-11-22T18:56:51.814Z,46.37
2022-11-22T18:59:20.053Z,48.47
2022-11-22T19:01:48.232Z,48.67
2022-11-22T19:04:17.036Z,49.47
2022-11-22T19:06:45.995Z,48.77
2022-11-22T19:09:14.072Z,50.43
2022-11-22T19:11:43.544Z,49.47
2022-11-22T19:14:11.486Z,50.47
2022-11-22T19:16:39.501Z,50.53
2022-11-22T19:19:08.464Z,51.83
2022-11-22T19:21:36.409Z,51.73
2022-11-22T19:24:04.766Z,50.87
2022-11-22T19:26:32.836Z,51.57
2022-11-22T19:29:02.888Z,52.13
2022-11-22T19:31:31.691Z,56.63
2022-11-22T19:34:00.104Z,54.50
2022-11-22T19:36:33.778Z,52.50
2022-11-22T19:39:03.765Z,51.97
2022-11-22T19:41:32.054Z,52.40
2022-11-22T19:44:00.154Z,52.83
2022-11-22T19:46:30.133Z,52.70
2022-11-22T19:48:59.767Z,54.67
2022-11-22T19:51:30.982Z,54.30
2022-11-22T19:54:02.242Z,53.77
2022-11-22T19:56:32.936Z,53.83
2022-11-22T19:59:02.405Z,53.40
2022-11-22T20:01:33.662Z,52.07
2022-11-22T20:04:04.514Z,53.23
2022-11-22T20:06:33.524Z,52.80
2022-11-22T20:09:02.904Z,53.07
2022-11-22T20:11:30.825Z,53.63
2022-11-22T20:13:59.058Z,54.40
2022-11-22T20:16:29.074Z,57.00
2022-11-22T20:18:59.797Z,57.80
2022-11-22T20:21:33.970Z,59.03
2022-11-22T20:24:02.910Z,59.50
2022-11-22T20:26:32.459Z,60.00
2022-11-22T20:29:02.217Z,59.67
2022-11-22T20:31:32.165Z,62.03
2022-11-22T20:34:03.118Z,59.47
2022-11-22T20:36:32.295Z,61.10
2022-11-22T20:39:04.161Z,61.63
2022-11-22T20:41:37.290Z,59.77
2022-11-22T20:44:06.769Z,61.37
2022-11-22T20:46:37.760Z,61.17
2022-11-22T20:49:07.821Z,62.70
2022-11-22T20:51:39.659Z,63.50
2022-11-22T20:54:08.622Z,65.20
2022-11-22T20:56:37.254Z,65.93
2022-11-22T20:59:05.304Z,64.50
2022-11-22T21:01:33.509Z,62.47
2022-11-22T21:04:01.549Z,63.27
2022-11-22T21:06:32.878Z,65.93
2022-11-22T21:09:00.860Z,67.03
2022-11-22T21:11:31.049Z,66.37
2022-11-22T21:13:59.733Z,66.30
2022-11-22T21:16:30.071Z,65.53
2022-11-22T21:19:01.045Z,68.37
2022-11-22T21:21:31.673Z,69.33
2022-11-22T21:24:01.513Z,67.03
2022-11-22T21:26:30.419Z,67.03
2022-11-22T21:28:59.461Z,64.57
2022-11-22T21:31:28.297Z,65.37
2022-11-22T21:33:56.278Z,64.20
2022-11-22T21:36:24.195Z,65.60
2022-11-22T21:38:53.593Z,63.00
2022-11-22T21:41:40.318Z,63.33
2022-11-22T21:44:09.536Z,64.10
2022-11-22T21:46:37.870Z,61.20
2022-11-22T21:49:05.830Z,63.10
2022-11-22T21:51:33.870Z,63.90
2022-11-22T21:54:03.710Z,65.90
2022-11-22T21:56:31.928Z,62.43
2022-11-22T21:59:00.167Z,62.43
2022-11-22T22:01:28.489Z,70.43
2022-11-22T22:03:56.524Z,71.47
2022-11-22T22:06:25.209Z,63.40
2022-11-22T22:08:53.421Z,61.03
2022-11-22T22:11:23.133Z,61.67
2022-11-22T22:13:53.311Z,61.57
2022-11-22T22:16:23.657Z,60.17
2022-11-22T22:18:51.713Z,60.80
2022-11-22T22:21:20.439Z,59.00
2022-11-22T22:23:48.644Z,60.00
2022-11-22T22:26:18.277Z,59.80
2022-11-22T22:28:47.790Z,62.43
2022-11-22T22:31:21.568Z,62.07
2022-11-22T22:33:51.224Z,63.23
2022-11-22T22:36:20.098Z,60.77
2022-11-22T22:38:48.285Z,61.67
2022-11-22T22:41:16.292Z,62.03
2022-11-22T22:43:46.487Z,61.70
2022-11-22T22:46:17.512Z,60.50
2022-11-22T22:48:46.053Z,60.93
2022-11-22T22:51:16.468Z,60.53
2022-11-22T22:53:46.553Z,61.30
2022-11-22T22:56:15.978Z,63.03
2022-11-22T22:58:44.545Z,64.07
2022-11-22T23:01:17.550Z,63.30
2022-11-22T23:03:48.864Z,62.73
2022-11-22T23:06:17.601Z,63.27
2022-11-22T23:08:47.361Z,63.17
2022-11-22T23:11:16.758Z,64.00
2022-11-22T23:13:45.303Z,65.90
2022-11-22T23:16:15.191Z,65.37
2022-11-22T23:18:45.819Z,66.33
2022-11-22T23:21:15.927Z,65.97
2022-11-22T23:23:46.985Z,67.80
2022-11-22T23:26:15.028Z,67.47
2022-11-22T23:28:42.930Z,65.30
2022-11-22T23:31:12.449Z,67.40
2022-11-22T23:33:40.864Z,67.03
2022-11-22T23:36:12.525Z,69.23
2022-11-22T23:38:40.816Z,64.77
2022-11-22T23:41:10.100Z,68.33
2022-11-22T23:43:37.998Z,70.20
2022-11-22T23:46:06.145Z,70.27
2022-11-22T23:48:34.092Z,69.93
2022-11-22T23:51:04.274Z,68.67
2022-11-22T23:53:33.705Z,70.13
2022-11-22T23:56:06.659Z,72.63
2022-11-22T23:58:34.961Z,70.63
